createdAt,value
2022-12-06T00:01:23.644Z,100520.50
2022-12-06T00:03:56.631Z,100508.41
2022-12-06T00:06:23.859Z,100510.13
2022-12-06T00:08:52.830Z,100511.75
2022-12-06T00:11:26.221Z,100503.81
2022-12-06T00:13:53.671Z,100527.91
2022-12-06T00:16:20.247Z,100514.06
2022-12-06T00:18:46.799Z,100508.00
2022-12-06T00:21:16.836Z,100510.63
2022-12-06T00:23:46.476Z,100520.94
2022-12-06T00:26:13.623Z,100506.16
2022-12-06T00:28:42.611Z,100506.16
2022-12-06T00:31:10.045Z,100509.72
2022-12-06T00:33:37.091Z,100501.97
2022-12-06T00:36:04.819Z,100494.22
2022-12-06T00:38:31.408Z,100482.09
2022-12-06T00:41:07.759Z,100474.31
2022-12-06T00:43:34.396Z,100471.53
2022-12-06T00:46:01.196Z,100469.84
2022-12-06T00:48:27.718Z,100478.53
2022-12-06T00:50:54.416Z,100459.63
2022-12-06T00:53:21.187Z,100469.97
2022-12-06T00:55:47.794Z,100461.13
2022-12-06T00:58:17.433Z,100462.75
2022-12-06T01:00:43.949Z,100462.53
2022-12-06T01:03:13.065Z,100462.31
2022-12-06T01:05:42.275Z,100458.88
2022-12-06T01:08:09.074Z,100446.63
2022-12-06T01:10:35.865Z,100435.19
2022-12-06T01:13:02.489Z,100433.31
2022-12-06T01:15:28.965Z,100443.69
2022-12-06T01:17:55.481Z,100434.19
2022-12-06T01:20:22.104Z,100431.56
2022-12-06T01:22:48.608Z,100426.84
2022-12-06T01:25:18.007Z,100430.19
2022-12-06T01:27:44.601Z,100438.69
2022-12-06T01:30:11.311Z,100423.16
2022-12-06T01:32:37.875Z,100412.81
2022-12-06T01:35:04.583Z,100407.47
2022-12-06T01:37:31.134Z,100397.91
2022-12-06T01:39:58.006Z,100391.84
2022-12-06T01:42:26.978Z,100396.91
2022-12-06T01:44:58.083Z,100387.34
2022-12-06T01:47:24.657Z,100368.31
2022-12-06T01:49:56.119Z,100365.63
2022-12-06T01:52:23.913Z,100364.56
2022-12-06T01:54:52.856Z,100365.44
2022-12-06T01:57:19.389Z,100359.34
2022-12-06T01:59:45.971Z,100356.38
2022-12-06T02:02:12.561Z,100361.34
2022-12-06T02:04:41.400Z,100368.94
2022-12-06T02:07:08.001Z,100365.50
2022-12-06T02:09:34.593Z,100375.94
2022-12-06T02:12:01.190Z,100405.88
2022-12-06T02:14:29.939Z,100416.09
2022-12-06T02:17:05.895Z,100427.28
2022-12-06T02:19:47.895Z,100431.03
2022-12-06T02:22:19.689Z,100415.09
2022-12-06T02:24:59.426Z,100408.66
2022-12-06T02:27:31.709Z,100419.34
2022-12-06T02:30:09.066Z,100416.66
2022-12-06T02:32:40.907Z,100419.19
2022-12-06T02:35:09.847Z,100418.09
2022-12-06T02:37:37.814Z,100422.13
2022-12-06T02:40:07.719Z,100417.91
2022-12-06T02:42:39.445Z,100424.56
2022-12-06T02:45:09.888Z,100430.41
2022-12-06T02:47:41.439Z,100436.56
2022-12-06T02:50:12.503Z,100438.78
2022-12-06T02:52:41.947Z,100436.00
2022-12-06T02:55:11.453Z,100430.03
2022-12-06T02:57:42.138Z,100412.28
2022-12-06T03:00:30.043Z,100422.91
2022-12-06T03:03:08.695Z,100402.13
2022-12-06T03:05:36.585Z,100392.72
2022-12-06T03:08:03.205Z,100372.09
2022-12-06T03:10:29.849Z,100373.88
2022-12-06T03:13:05.734Z,100371.41
2022-12-06T03:15:44.506Z,100378.47
2022-12-06T03:18:32.065Z,100357.06
2022-12-06T03:21:00.061Z,100364.66
2022-12-06T03:23:34.045Z,100364.84
2022-12-06T03:26:01.265Z,100339.91
2022-12-06T03:28:28.251Z,100335.56
2022-12-06T03:30:57.471Z,100334.63
2022-12-06T03:33:24.297Z,100324.28
2022-12-06T03:35:52.205Z,100309.66
2022-12-06T03:38:26.071Z,100308.84
2022-12-06T03:40:52.743Z,100316.78
2022-12-06T03:43:19.289Z,100313.53
2022-12-06T03:45:47.253Z,100320.19
2022-12-06T03:48:18.785Z,100326.09
2022-12-06T03:50:46.854Z,100315.41
2022-12-06T03:53:13.413Z,100310.06
2022-12-06T03:55:40.449Z,100323.38
2022-12-06T03:58:09.446Z,100282.94
2022-12-06T04:00:36.332Z,100302.72
2022-12-06T04:03:03.589Z,100286.44
2022-12-06T04:05:30.364Z,100298.72
2022-12-06T04:07:57.485Z,100299.72
2022-12-06T04:10:24.636Z,100290.41
2022-12-06T04:13:06.465Z,100293.88
2022-12-06T04:15:34.671Z,100298.16
2022-12-06T04:18:18.724Z,100304.19
2022-12-06T04:21:08.457Z,100312.88
2022-12-06T04:23:36.247Z,100325.69
2022-12-06T04:26:04.065Z,100330.63
2022-12-06T04:28:52.017Z,100351.91
2022-12-06T04:31:37.429Z,100343.00
2022-12-06T04:34:25.450Z,100341.56
2022-12-06T04:37:10.763Z,100347.53
2022-12-06T04:39:37.794Z,100348.28
2022-12-06T04:42:23.146Z,100358.63
2022-12-06T04:44:49.979Z,100355.28
2022-12-06T04:47:17.029Z,100346.56
2022-12-06T04:49:43.938Z,100346.16
2022-12-06T04:52:11.007Z,100350.13
2022-12-06T04:54:38.178Z,100352.47
2022-12-06T04:57:11.413Z,100350.84
2022-12-06T04:59:41.240Z,100340.00
2022-12-06T05:02:10.318Z,100347.47
2022-12-06T05:04:40.150Z,100342.59
2022-12-06T05:07:09.959Z,100344.00
2022-12-06T05:09:36.619Z,100329.75
2022-12-06T05:12:03.285Z,100320.84
2022-12-06T05:14:30.230Z,100320.00
2022-12-06T05:16:56.890Z,100322.50
2022-12-06T05:19:27.257Z,100318.38
2022-12-06T05:21:56.974Z,100320.22
2022-12-06T05:24:23.772Z,100328.97
2022-12-06T05:26:52.618Z,100333.09
2022-12-06T05:29:20.051Z,100333.19
2022-12-06T05:31:49.157Z,100333.53
2022-12-06T05:34:18.929Z,100328.44
2022-12-06T05:36:46.187Z,100322.41
2022-12-06T05:39:12.893Z,100333.00
2022-12-06T05:41:41.409Z,100334.56
2022-12-06T05:44:11.254Z,100340.06
2022-12-06T05:46:38.018Z,100335.19
2022-12-06T05:49:04.633Z,100329.75
2022-12-06T05:51:31.238Z,100316.94
2022-12-06T05:53:58.861Z,100314.81
2022-12-06T05:56:25.518Z,100322.00
2022-12-06T05:58:56.627Z,100319.56
2022-12-06T06:01:25.524Z,100317.53
2022-12-06T06:03:52.419Z,100317.38
2022-12-06T06:06:21.437Z,100319.91
2022-12-06T06:08:47.978Z,100317.91
2022-12-06T06:11:17.088Z,100316.88
2022-12-06T06:13:43.659Z,100301.91
2022-12-06T06:16:13.149Z,100314.13
2022-12-06T06:18:42.108Z,100304.56
2022-12-06T06:21:08.830Z,100294.31
2022-12-06T06:23:37.726Z,100301.03
2022-12-06T06:26:09.086Z,100296.31
2022-12-06T06:28:38.236Z,100310.94
2022-12-06T06:31:06.026Z,100294.72
2022-12-06T06:33:36.261Z,100289.19
2022-12-06T06:36:05.655Z,100296.19
2022-12-06T06:38:35.246Z,100296.09
2022-12-06T06:41:03.110Z,100302.78
2022-12-06T06:43:30.403Z,100296.34
2022-12-06T06:46:01.093Z,100297.81
2022-12-06T06:48:28.568Z,100288.88
2022-12-06T06:50:57.572Z,100282.91
2022-12-06T06:53:26.517Z,100284.53
2022-12-06T06:55:55.633Z,100291.84
2022-12-06T06:58:24.727Z,100292.38
2022-12-06T07:00:55.231Z,100296.72
2022-12-06T07:03:22.098Z,100291.03
2022-12-06T07:05:55.553Z,100281.97
2022-12-06T07:08:22.452Z,100271.88
2022-12-06T07:10:49.134Z,100285.28
2022-12-06T07:13:18.555Z,100277.09
2022-12-06T07:15:50.974Z,100280.56
2022-12-06T07:18:17.651Z,100268.03
2022-12-06T07:20:44.674Z,100275.38
2022-12-06T07:23:11.221Z,100275.53
2022-12-06T07:25:37.926Z,100285.41
2022-12-06T07:28:04.871Z,100279.66
2022-12-06T07:30:31.562Z,100298.38
2022-12-06T07:32:58.713Z,100298.38
2022-12-06T07:35:42.046Z,100303.91
2022-12-06T07:38:12.457Z,100299.56
2022-12-06T07:41:03.575Z,100284.22
2022-12-06T07:43:46.995Z,100278.53
2022-12-06T07:46:13.688Z,100251.28
2022-12-06T07:48:40.391Z,100272.06
2022-12-06T07:51:09.299Z,100276.84
2022-12-06T07:53:35.860Z,100261.84
2022-12-06T07:56:08.237Z,100265.50
2022-12-06T07:58:36.900Z,100278.81
2022-12-06T08:01:04.258Z,100277.63
2022-12-06T08:03:33.343Z,100279.00
2022-12-06T08:06:02.549Z,100283.81
2022-12-06T08:08:31.742Z,100281.78
2022-12-06T08:11:01.761Z,100287.44
2022-12-06T08:13:28.869Z,100290.84
2022-12-06T08:15:55.741Z,100290.28
2022-12-06T08:18:22.521Z,100284.09
2022-12-06T08:20:49.202Z,100296.31
2022-12-06T08:23:18.546Z,100305.78
2022-12-06T08:25:45.366Z,100314.06
2022-12-06T08:28:11.983Z,100313.09
2022-12-06T08:30:42.016Z,100323.41
2022-12-06T08:33:08.740Z,100311.88
2022-12-06T08:35:38.389Z,100306.72
2022-12-06T08:38:04.973Z,100308.75
2022-12-06T08:40:31.597Z,100308.81
2022-12-06T08:42:58.146Z,100311.50
2022-12-06T08:45:24.952Z,100315.03
2022-12-06T08:47:53.908Z,100309.44
2022-12-06T08:50:23.307Z,100314.88
2022-12-06T08:52:50.075Z,100312.75
2022-12-06T08:55:19.206Z,100313.25
2022-12-06T08:57:46.022Z,100317.19
2022-12-06T09:00:20.685Z,100312.66
2022-12-06T09:02:52.733Z,100316.59
2022-12-06T09:05:21.387Z,100319.06
2022-12-06T09:07:48.068Z,100310.94
2022-12-06T09:10:17.329Z,100300.00
2022-12-06T09:12:46.437Z,100302.78
2022-12-06T09:15:15.145Z,100300.47
2022-12-06T09:17:41.825Z,100301.19
2022-12-06T09:20:11.019Z,100288.97
2022-12-06T09:22:37.883Z,100306.09
2022-12-06T09:25:07.116Z,100298.31
2022-12-06T09:27:33.746Z,100297.09
2022-12-06T09:30:04.604Z,100298.03
2022-12-06T09:32:31.223Z,100291.81
2022-12-06T09:34:57.803Z,100283.63
2022-12-06T09:37:24.684Z,100286.97
2022-12-06T09:40:00.534Z,100281.97
2022-12-06T09:42:39.460Z,100294.16
2022-12-06T09:45:12.105Z,100292.47
2022-12-06T09:47:44.243Z,100294.56
2022-12-06T09:50:12.658Z,100294.28
2022-12-06T09:52:39.173Z,100294.56
2022-12-06T09:55:18.273Z,100305.06
2022-12-06T09:57:53.160Z,100301.38
2022-12-06T10:00:23.321Z,100298.56
2022-12-06T10:02:50.046Z,100294.72
2022-12-06T10:05:19.367Z,100294.28
2022-12-06T10:07:53.178Z,100296.75
2022-12-06T10:10:49.214Z,100292.63
2022-12-06T10:13:21.601Z,100278.44
2022-12-06T10:16:03.806Z,100284.09
2022-12-06T10:18:42.714Z,100272.47
2022-12-06T10:21:12.838Z,100266.59
2022-12-06T10:23:47.808Z,100270.13
2022-12-06T10:26:15.391Z,100262.19
2022-12-06T10:28:52.137Z,100261.31
2022-12-06T10:31:18.721Z,100254.00
2022-12-06T10:33:47.765Z,100244.63
2022-12-06T10:36:15.531Z,100237.28
2022-12-06T10:38:42.480Z,100233.59
2022-12-06T10:41:08.970Z,100228.03
2022-12-06T10:43:53.926Z,100219.97
2022-12-06T10:46:45.031Z,100205.63
2022-12-06T10:49:29.320Z,100217.16
2022-12-06T10:51:59.895Z,100222.31
2022-12-06T10:54:34.149Z,100225.44
2022-12-06T10:57:04.735Z,100225.84
2022-12-06T10:59:37.062Z,100227.66
2022-12-06T11:02:33.268Z,100224.88
2022-12-06T11:05:00.599Z,100231.72
2022-12-06T11:07:29.809Z,100232.00
2022-12-06T11:09:56.767Z,100227.00
2022-12-06T11:12:31.798Z,100220.63
2022-12-06T11:15:23.152Z,100215.38
2022-12-06T11:17:54.934Z,100218.50
2022-12-06T11:20:24.722Z,100216.75
2022-12-06T11:22:55.457Z,100219.06
2022-12-06T11:25:41.480Z,100221.72
2022-12-06T11:28:21.540Z,100214.72
2022-12-06T11:30:54.091Z,100215.22
2022-12-06T11:33:21.106Z,100211.03
2022-12-06T11:35:52.976Z,100212.75
2022-12-06T11:38:19.551Z,100214.16
2022-12-06T11:40:46.940Z,100212.28
2022-12-06T11:43:24.280Z,100211.19
2022-12-06T11:45:50.822Z,100225.88
2022-12-06T11:48:18.591Z,100227.25
2022-12-06T11:50:48.216Z,100231.69
2022-12-06T11:53:23.170Z,100225.91
2022-12-06T11:55:53.984Z,100233.03
2022-12-06T11:58:30.350Z,100215.34
2022-12-06T12:01:05.592Z,100220.00
2022-12-06T12:03:33.192Z,100209.19
2022-12-06T12:06:10.124Z,100219.88
2022-12-06T12:08:36.841Z,100219.16
2022-12-06T12:11:04.522Z,100218.16
2022-12-06T12:13:45.220Z,100223.69
2022-12-06T12:16:17.880Z,100224.78
2022-12-06T12:18:50.535Z,100219.53
2022-12-06T12:21:29.328Z,100224.91
2022-12-06T12:23:56.285Z,100220.19
2022-12-06T12:26:29.838Z,100225.81
2022-12-06T12:29:08.609Z,100230.97
2022-12-06T12:31:45.652Z,100215.75
2022-12-06T12:34:22.364Z,100225.38
2022-12-06T12:36:54.975Z,100222.00
2022-12-06T12:39:27.884Z,100226.81
2022-12-06T12:41:56.939Z,100221.59
2022-12-06T12:44:39.092Z,100213.75
2022-12-06T12:47:20.717Z,100220.91
2022-12-06T12:50:03.714Z,100212.34
2022-12-06T12:52:31.523Z,100221.97
2022-12-06T12:55:05.049Z,100224.09
2022-12-06T12:57:31.625Z,100214.56
2022-12-06T12:59:58.195Z,100206.22
2022-12-06T13:02:27.191Z,100201.69
2022-12-06T13:05:17.451Z,100203.50
2022-12-06T13:07:44.352Z,100199.53
2022-12-06T13:10:29.736Z,100203.66
2022-12-06T13:12:59.577Z,100204.03
2022-12-06T13:15:32.048Z,100195.66
2022-12-06T13:18:02.582Z,100193.97
2022-12-06T13:20:33.041Z,100199.75
2022-12-06T13:23:19.221Z,100207.28
2022-12-06T13:26:07.312Z,100202.63
2022-12-06T13:28:38.125Z,100203.75
2022-12-06T13:31:10.481Z,100207.09
2022-12-06T13:33:39.978Z,100205.53
2022-12-06T13:36:07.759Z,100212.19
2022-12-06T13:38:35.475Z,100213.97
2022-12-06T13:41:06.029Z,100213.78
2022-12-06T13:43:37.947Z,100211.94
2022-12-06T13:46:09.231Z,100210.53
2022-12-06T13:48:38.695Z,100216.53
2022-12-06T13:51:12.745Z,100209.38
2022-12-06T13:53:59.522Z,100214.69
2022-12-06T13:56:35.151Z,100215.81
2022-12-06T13:59:02.739Z,100213.56
2022-12-06T14:01:36.855Z,100207.16
2022-12-06T14:07:00.249Z,100209.91
2022-12-06T14:09:29.138Z,100217.75
2022-12-06T14:12:01.673Z,100221.16
2022-12-06T14:14:28.202Z,100225.69
2022-12-06T14:16:56.752Z,100206.44
2022-12-06T14:19:28.733Z,100206.13
2022-12-06T14:21:59.953Z,100223.94
2022-12-06T14:24:26.452Z,100211.72
2022-12-06T14:26:58.988Z,100206.06
2022-12-06T14:29:28.205Z,100212.91
2022-12-06T14:31:54.697Z,100211.25
2022-12-06T14:34:25.162Z,100220.72
2022-12-06T14:36:54.010Z,100225.31
2022-12-06T14:39:22.955Z,100216.09
2022-12-06T14:42:12.364Z,100222.03
2022-12-06T14:44:39.247Z,100212.06
2022-12-06T14:47:10.535Z,100218.53
2022-12-06T14:49:55.953Z,100218.88
2022-12-06T14:52:24.150Z,100217.84
2022-12-06T14:54:52.200Z,100220.25
2022-12-06T14:57:28.800Z,100219.66
2022-12-06T15:00:25.831Z,100227.84
2022-12-06T15:03:04.271Z,100230.09
2022-12-06T15:05:49.990Z,100217.75
2022-12-06T15:08:20.441Z,100227.63
2022-12-06T15:10:57.574Z,100220.47
2022-12-06T15:13:27.036Z,100217.72
2022-12-06T15:16:04.723Z,100223.94
2022-12-06T15:18:35.277Z,100224.72
2022-12-06T15:21:02.019Z,100223.97
2022-12-06T15:23:36.189Z,100223.91
2022-12-06T15:26:03.694Z,100234.72
2022-12-06T15:28:30.228Z,100226.69
2022-12-06T15:30:56.791Z,100225.53
2022-12-06T15:33:23.938Z,100235.25
2022-12-06T15:35:54.328Z,100232.00
2022-12-06T15:38:21.594Z,100241.00
2022-12-06T15:40:51.186Z,100235.22
2022-12-06T15:43:29.359Z,100242.00
2022-12-06T15:46:07.461Z,100234.59
2022-12-06T15:48:37.662Z,100242.84
2022-12-06T15:51:09.320Z,100242.75
2022-12-06T15:53:37.349Z,100245.34
2022-12-06T15:56:03.963Z,100242.09
2022-12-06T15:58:30.577Z,100248.50
2022-12-06T16:00:58.971Z,100251.00
2022-12-06T16:03:25.655Z,100247.41
2022-12-06T16:05:52.506Z,100249.03
2022-12-06T16:08:24.584Z,100245.00
2022-12-06T16:13:38.247Z,100248.59
2022-12-06T16:16:05.127Z,100244.13
2022-12-06T16:18:34.061Z,100248.31
2022-12-06T16:21:00.702Z,100253.41
2022-12-06T16:24:12.464Z,100259.66
2022-12-06T16:26:34.520Z,100250.00
2022-12-06T16:29:01.926Z,100254.66
2022-12-06T16:31:29.051Z,100261.72
2022-12-06T16:34:01.977Z,100253.03
2022-12-06T16:36:29.959Z,100257.09
2022-12-06T16:38:59.979Z,100251.69
2022-12-06T16:41:29.892Z,100256.00
2022-12-06T16:43:56.664Z,100253.38
2022-12-06T16:46:24.888Z,100259.19
2022-12-06T16:49:15.745Z,100254.78
2022-12-06T16:52:03.649Z,100257.59
2022-12-06T16:54:30.219Z,100262.03
2022-12-06T16:56:56.751Z,100260.50
2022-12-06T16:59:23.326Z,100262.72
2022-12-06T17:01:50.713Z,100262.81
2022-12-06T17:04:17.460Z,100263.88
2022-12-06T17:06:44.378Z,100262.94
2022-12-06T17:09:13.858Z,100263.78
2022-12-06T17:11:59.173Z,100256.00
2022-12-06T17:14:25.945Z,100254.81
2022-12-06T17:16:52.642Z,100258.81
2022-12-06T17:19:20.297Z,100262.09
2022-12-06T17:21:49.694Z,100266.09
2022-12-06T17:24:16.703Z,100264.03
2022-12-06T17:26:43.468Z,100270.88
2022-12-06T17:29:12.450Z,100272.56
2022-12-06T17:31:39.098Z,100274.34
2022-12-06T17:34:07.488Z,100272.13
2022-12-06T17:36:36.586Z,100278.53
2022-12-06T17:39:11.391Z,100279.56
2022-12-06T17:41:59.135Z,100268.88
2022-12-06T17:44:28.615Z,100271.94
2022-12-06T17:46:55.940Z,100265.31
2022-12-06T17:49:25.662Z,100272.16
2022-12-06T17:51:55.563Z,100275.59
2022-12-06T17:54:24.594Z,100278.03
2022-12-06T17:56:55.949Z,100275.22
2022-12-06T17:59:29.527Z,100281.25
2022-12-06T18:02:15.330Z,100277.16
2022-12-06T18:04:44.890Z,100272.06
2022-12-06T18:07:12.241Z,100266.84
2022-12-06T18:09:41.307Z,100262.91
2022-12-06T18:12:08.373Z,100254.69
2022-12-06T18:14:38.041Z,100262.19
2022-12-06T18:17:04.732Z,100253.44
2022-12-06T18:19:33.992Z,100249.72
2022-12-06T18:22:00.605Z,100257.75
2022-12-06T18:24:33.487Z,100256.38
2022-12-06T18:27:00.584Z,100259.19
2022-12-06T18:29:32.926Z,100251.09
2022-12-06T18:32:02.063Z,100248.66
2022-12-06T18:34:31.376Z,100254.28
2022-12-06T18:36:58.106Z,100252.22
2022-12-06T18:39:25.009Z,100258.72
2022-12-06T18:41:52.630Z,100258.31
2022-12-06T18:44:19.372Z,100249.72
2022-12-06T18:46:46.056Z,100252.16
2022-12-06T18:49:20.105Z,100250.19
2022-12-06T18:51:46.696Z,100260.19
2022-12-06T18:54:18.463Z,100244.34
2022-12-06T18:56:47.547Z,100265.25
2022-12-06T18:59:14.113Z,100250.75
2022-12-06T19:01:43.253Z,100256.16
2022-12-06T19:04:16.685Z,100253.00
2022-12-06T19:06:45.983Z,100251.47
2022-12-06T19:09:16.000Z,100268.59
2022-12-06T19:11:48.418Z,100260.31
2022-12-06T19:14:15.300Z,100263.22
2022-12-06T19:16:51.445Z,100257.41
2022-12-06T19:19:21.774Z,100245.28
2022-12-06T19:21:48.805Z,100253.00
2022-12-06T19:24:20.283Z,100252.56
2022-12-06T19:26:49.289Z,100251.00
2022-12-06T19:29:16.360Z,100268.44
2022-12-06T19:31:43.220Z,100262.19
2022-12-06T19:34:16.772Z,100264.59
2022-12-06T19:36:45.762Z,100265.59
2022-12-06T19:39:13.907Z,100255.75
2022-12-06T19:41:59.227Z,100258.06
2022-12-06T19:44:26.434Z,100261.63
2022-12-06T19:46:53.170Z,100259.47
2022-12-06T19:49:23.071Z,100252.88
2022-12-06T19:51:49.728Z,100248.19
2022-12-06T19:54:17.592Z,100248.28
2022-12-06T19:56:46.522Z,100245.00
2022-12-06T19:59:20.952Z,100252.72
2022-12-06T20:01:48.013Z,100247.09
2022-12-06T20:04:16.951Z,100249.88
2022-12-06T20:06:45.941Z,100254.25
2022-12-06T20:09:15.035Z,100254.25
2022-12-06T20:12:03.479Z,100247.75
2022-12-06T20:14:39.991Z,100252.41
2022-12-06T20:17:13.026Z,100245.06
2022-12-06T20:19:42.985Z,100245.13
2022-12-06T20:22:09.972Z,100248.75
2022-12-06T20:24:43.764Z,100251.78
2022-12-06T20:27:12.538Z,100240.69
2022-12-06T20:29:43.679Z,100240.19
2022-12-06T20:32:11.300Z,100232.97
2022-12-06T20:34:38.207Z,100238.03
2022-12-06T20:37:07.597Z,100241.97
2022-12-06T20:39:35.907Z,100240.25
2022-12-06T20:42:07.077Z,100242.00
2022-12-06T20:44:42.630Z,100246.50
2022-12-06T20:47:09.329Z,100244.38
2022-12-06T20:49:38.806Z,100238.06
2022-12-06T20:52:07.876Z,100235.41
2022-12-06T20:54:34.557Z,100235.25
2022-12-06T20:57:06.236Z,100235.59
2022-12-06T20:59:32.781Z,100248.09
2022-12-06T21:02:01.909Z,100238.47
2022-12-06T21:04:28.853Z,100237.81
2022-12-06T21:06:55.660Z,100236.53
2022-12-06T21:09:22.402Z,100238.63
2022-12-06T21:11:49.049Z,100242.47
2022-12-06T21:14:20.290Z,100237.84
2022-12-06T21:16:46.889Z,100236.53
2022-12-06T21:19:16.698Z,100238.72
2022-12-06T21:21:44.615Z,100244.22
2022-12-06T21:24:12.337Z,100241.75
2022-12-06T21:26:39.052Z,100239.91
2022-12-06T21:29:05.891Z,100250.53
2022-12-06T21:31:33.700Z,100249.91
2022-12-06T21:34:00.290Z,100250.66
2022-12-06T21:36:29.557Z,100254.69
2022-12-06T21:38:56.310Z,100251.72
2022-12-06T21:41:22.857Z,100256.22
2022-12-06T21:43:49.456Z,100261.97
2022-12-06T21:46:17.227Z,100263.91
2022-12-06T21:48:50.510Z,100269.38
2022-12-06T21:51:18.094Z,100269.03
2022-12-06T21:53:44.592Z,100265.81
2022-12-06T21:56:24.123Z,100272.97
2022-12-06T21:58:52.887Z,100260.50
2022-12-06T22:01:20.624Z,100271.63
2022-12-06T22:03:47.730Z,100262.59
2022-12-06T22:06:14.441Z,100262.03
2022-12-06T22:08:41.679Z,100250.50
2022-12-06T22:11:09.196Z,100266.09
2022-12-06T22:13:38.390Z,100260.03
2022-12-06T22:16:08.454Z,100260.81
2022-12-06T22:18:38.734Z,100268.53
2022-12-06T22:21:29.612Z,100270.06
2022-12-06T22:23:58.150Z,100268.69
2022-12-06T22:26:30.717Z,100265.88
2022-12-06T22:28:57.970Z,100262.03
2022-12-06T22:31:28.548Z,100260.75
2022-12-06T22:33:55.938Z,100257.03
2022-12-06T22:36:27.131Z,100257.69
2022-12-06T22:38:54.819Z,100252.91
2022-12-06T22:41:21.726Z,100245.63
2022-12-06T22:43:51.980Z,100247.88
2022-12-06T22:46:23.672Z,100243.13
2022-12-06T22:48:50.419Z,100239.94
2022-12-06T22:51:20.996Z,100237.63
2022-12-06T22:53:57.315Z,100238.88
2022-12-06T22:56:24.334Z,100232.38
2022-12-06T22:58:57.952Z,100232.25
2022-12-06T23:01:25.798Z,100229.91
2022-12-06T23:03:55.321Z,100220.63
2022-12-06T23:06:23.434Z,100225.63
2022-12-06T23:08:50.135Z,100222.84
2022-12-06T23:11:20.201Z,100226.50
2022-12-06T23:13:46.767Z,100219.75
2022-12-06T23:16:16.603Z,100221.06
2022-12-06T23:18:46.207Z,100216.78
2022-12-06T23:21:15.823Z,100216.19
2022-12-06T23:23:44.329Z,100213.09
2022-12-06T23:26:11.649Z,100204.63
2022-12-06T23:28:38.194Z,100199.63
2022-12-06T23:31:09.820Z,100192.91
2022-12-06T23:33:38.896Z,100193.63
2022-12-06T23:36:08.443Z,100197.03
2022-12-06T23:38:37.622Z,100220.63
2022-12-06T23:41:05.105Z,100231.50
2022-12-06T23:43:34.974Z,100242.34
2022-12-06T23:46:07.388Z,100242.13
2022-12-06T23:48:41.807Z,100241.25
2022-12-06T23:51:15.686Z,100247.56
2022-12-06T23:53:48.105Z,100234.63
2022-12-06T23:56:15.849Z,100232.09
2022-12-06T23:58:42.802Z,100226.94
